createdAt,value
2018-05-13T00:00:01.345Z,11.93
2018-05-13T00:02:28.918Z,8.40
2018-05-13T00:04:56.722Z,6.60
2018-05-13T00:07:24.377Z,5.57
2018-05-13T00:09:51.876Z,5.70
2018-05-13T00:12:20.130Z,7.20
2018-05-13T00:14:47.596Z,8.87
2018-05-13T00:17:15.081Z,7.53
2018-05-13T00:19:43.318Z,6.50
2018-05-13T00:22:10.803Z,6.13
2018-05-13T00:24:39.053Z,6.37
2018-05-13T00:27:06.529Z,5.77
2018-05-13T00:29:34.757Z,5.63
2018-05-13T00:32:02.240Z,6.57
2018-05-13T00:34:29.700Z,6.20
2018-05-13T00:36:57.172Z,6.37
2018-05-13T00:39:24.635Z,6.03
2018-05-13T00:41:52.133Z,5.70
2018-05-13T00:44:19.600Z,6.30
2018-05-13T00:46:48.089Z,5.70
2018-05-13T00:49:15.569Z,6.07
2018-05-13T00:51:43.092Z,5.53
2018-05-13T00:54:22.490Z,6.07
2018-05-13T00:56:49.964Z,6.00
2018-05-13T00:59:17.476Z,6.70
2018-05-13T01:01:44.941Z,5.33
2018-05-13T01:04:12.422Z,5.03
2018-05-13T01:06:40.660Z,5.17
2018-05-13T01:09:08.132Z,5.20
2018-05-13T01:11:35.595Z,6.27
2018-05-13T01:14:03.083Z,5.13
2018-05-13T01:16:31.311Z,5.43
2018-05-13T01:18:58.792Z,5.90
2018-05-13T01:21:26.282Z,5.70
2018-05-13T01:23:54.521Z,5.57
2018-05-13T01:26:22.000Z,6.07
2018-05-13T01:28:49.460Z,7.07
2018-05-13T01:31:17.712Z,6.60
2018-05-13T01:33:45.177Z,6.77
2018-05-13T01:36:12.660Z,7.30
2018-05-13T01:38:40.888Z,7.00
2018-05-13T01:41:08.363Z,6.80
2018-05-13T01:43:35.823Z,6.90
2018-05-13T01:46:03.303Z,7.67
2018-05-13T01:48:31.536Z,6.40
2018-05-13T01:50:59.027Z,6.97
2018-05-13T01:53:27.267Z,7.20
2018-05-13T01:55:54.741Z,6.90
2018-05-13T01:58:22.233Z,5.97
2018-05-13T02:00:50.463Z,5.90
2018-05-13T02:03:17.949Z,6.50
2018-05-13T02:05:45.413Z,6.73
2018-05-13T02:08:12.896Z,6.50
2018-05-13T02:10:41.130Z,6.63
2018-05-13T02:13:08.606Z,7.17
2018-05-13T02:15:36.064Z,6.40
2018-05-13T02:18:03.528Z,7.47
2018-05-13T02:20:31.775Z,8.87
2018-05-13T02:22:59.235Z,6.90
2018-05-13T02:25:26.727Z,6.60
2018-05-13T02:27:54.967Z,7.23
2018-05-13T02:30:22.447Z,6.77
2018-05-13T02:32:51.428Z,7.10
2018-05-13T02:35:18.903Z,7.20
2018-05-13T02:37:46.379Z,7.13
2018-05-13T02:40:14.621Z,6.67
2018-05-13T02:42:42.109Z,6.30
2018-05-13T02:45:10.327Z,5.40
2018-05-13T02:47:37.808Z,5.43
2018-05-13T02:50:05.282Z,5.83
2018-05-13T02:52:32.757Z,6.00
2018-05-13T02:55:00.983Z,6.93
2018-05-13T02:57:28.625Z,6.17
2018-05-13T02:59:56.090Z,6.60
2018-05-13T03:02:23.575Z,6.10
2018-05-13T03:04:51.055Z,7.30
2018-05-13T03:07:18.532Z,6.80
2018-05-13T03:09:46.763Z,6.43
2018-05-13T03:12:14.251Z,7.23
2018-05-13T03:14:42.481Z,7.33
2018-05-13T03:17:09.964Z,5.03
2018-05-13T03:19:37.431Z,4.80
2018-05-13T03:22:04.891Z,4.00
2018-05-13T03:24:32.388Z,4.60
2018-05-13T03:26:59.848Z,4.27
2018-05-13T03:29:27.373Z,4.20
2018-05-13T03:31:54.835Z,4.20
2018-05-13T03:34:22.320Z,4.80
2018-05-13T03:36:49.809Z,4.17
2018-05-13T03:39:17.296Z,3.70
2018-05-13T03:41:44.771Z,4.07
2018-05-13T03:44:13.004Z,4.20
2018-05-13T03:46:40.480Z,4.27
2018-05-13T03:49:07.948Z,4.17
2018-05-13T03:51:35.431Z,6.27
2018-05-13T03:54:03.660Z,7.67
2018-05-13T03:56:31.196Z,6.53
2018-05-13T03:58:58.664Z,6.30
2018-05-13T04:01:27.052Z,5.73
2018-05-13T04:03:54.512Z,6.87
2018-05-13T04:06:22.004Z,6.00
2018-05-13T04:09:01.264Z,5.40
2018-05-13T04:11:41.472Z,6.17
2018-05-13T04:14:20.851Z,5.47
2018-05-13T04:16:49.100Z,6.60
2018-05-13T04:19:16.563Z,6.00
2018-05-13T04:21:44.024Z,5.07
2018-05-13T04:24:11.502Z,7.40
2018-05-13T04:26:39.723Z,5.77
2018-05-13T04:29:07.203Z,5.73
2018-05-13T04:31:34.669Z,5.90
2018-05-13T04:34:02.931Z,6.50
2018-05-13T04:36:30.416Z,6.63
2018-05-13T04:38:58.664Z,6.90
2018-05-13T04:41:26.130Z,6.60
2018-05-13T04:43:53.604Z,7.27
2018-05-13T04:46:21.068Z,7.37
2018-05-13T04:48:49.299Z,7.13
2018-05-13T04:51:16.780Z,7.83
2018-05-13T04:53:44.246Z,7.50
2018-05-13T04:56:12.485Z,8.70
2018-05-13T04:58:39.953Z,9.20
2018-05-13T05:01:07.427Z,8.93
2018-05-13T05:03:34.892Z,9.20
2018-05-13T05:06:02.388Z,10.57
2018-05-13T05:08:29.867Z,9.67
2018-05-13T05:10:57.359Z,9.97
2018-05-13T05:13:24.833Z,9.10
2018-05-13T05:15:52.298Z,8.83
2018-05-13T05:18:19.771Z,9.00
2018-05-13T05:20:48.015Z,8.30
2018-05-13T05:23:15.529Z,8.03
2018-05-13T05:25:42.996Z,9.13
2018-05-13T05:28:10.479Z,8.50
2018-05-13T05:30:37.953Z,7.83
2018-05-13T05:33:05.415Z,7.67
2018-05-13T05:35:32.892Z,8.37
2018-05-13T05:38:01.128Z,8.10
2018-05-13T05:40:28.607Z,8.30
2018-05-13T05:42:56.072Z,8.77
2018-05-13T05:45:23.552Z,8.30
2018-05-13T05:47:51.043Z,8.60
2018-05-13T05:50:18.511Z,9.20
2018-05-13T05:52:46.003Z,7.57
2018-05-13T05:55:13.461Z,9.13
2018-05-13T05:57:40.932Z,7.50
2018-05-13T06:00:09.183Z,8.03
2018-05-13T06:02:36.660Z,8.70
2018-05-13T06:05:04.896Z,7.83
2018-05-13T06:07:32.389Z,7.53
2018-05-13T06:09:59.868Z,7.80
2018-05-13T06:12:28.095Z,8.00
2018-05-13T06:14:55.684Z,8.73
2018-05-13T06:17:23.159Z,8.10
2018-05-13T06:19:51.435Z,8.33
2018-05-13T06:22:19.665Z,8.10
2018-05-13T06:24:47.128Z,7.93
2018-05-13T06:27:14.608Z,9.27
2018-05-13T06:29:42.844Z,8.90
2018-05-13T06:32:10.324Z,8.97
2018-05-13T06:34:37.783Z,9.10
2018-05-13T06:37:05.272Z,8.87
2018-05-13T06:39:33.555Z,9.70
2018-05-13T06:42:01.004Z,9.43
2018-05-13T06:44:29.236Z,9.83
2018-05-13T06:46:56.703Z,12.60
2018-05-13T06:49:24.191Z,12.10
2018-05-13T06:51:52.455Z,12.60
2018-05-13T06:54:20.702Z,13.70
2018-05-13T06:56:48.180Z,13.80
2018-05-13T06:59:16.439Z,13.70
2018-05-13T07:01:43.924Z,13.20
2018-05-13T07:04:12.176Z,14.20
2018-05-13T07:06:39.647Z,14.90
2018-05-13T07:09:08.649Z,17.07
2018-05-13T07:11:36.120Z,18.37
2018-05-13T07:14:04.393Z,18.20
2018-05-13T07:16:31.966Z,18.70
2018-05-13T07:18:59.368Z,19.27
2018-05-13T07:21:26.853Z,19.43
2018-05-13T07:23:54.328Z,21.63
2018-05-13T07:26:23.320Z,21.23
2018-05-13T07:28:50.821Z,21.60
2018-05-13T07:31:18.332Z,21.83
2018-05-13T07:33:47.308Z,23.03
2018-05-13T07:36:14.797Z,23.23
2018-05-13T07:38:42.851Z,22.07
2018-05-13T07:41:11.324Z,24.67
2018-05-13T07:43:38.832Z,23.73
2018-05-13T07:46:06.332Z,24.70
2018-05-13T07:48:33.812Z,26.00
2018-05-13T07:51:02.113Z,28.60
2018-05-13T07:53:29.564Z,28.73
2018-05-13T07:55:57.204Z,29.90
2018-05-13T07:58:24.677Z,31.17
2018-05-13T08:00:52.933Z,29.87
2018-05-13T08:03:20.418Z,31.90
2018-05-13T08:05:48.696Z,31.30
2018-05-13T08:08:16.953Z,32.67
2018-05-13T08:10:44.504Z,36.47
2018-05-13T08:13:12.784Z,37.37
2018-05-13T08:15:40.265Z,38.43
2018-05-13T08:18:07.795Z,38.20
2018-05-13T08:20:35.315Z,39.80
2018-05-13T08:23:04.443Z,40.30
2018-05-13T08:25:31.912Z,42.17
2018-05-13T08:27:59.417Z,41.07
2018-05-13T08:30:27.648Z,48.80
2018-05-13T08:32:55.126Z,43.23
2018-05-13T08:35:23.384Z,44.60
2018-05-13T08:37:50.868Z,47.30
2018-05-13T08:40:19.130Z,42.93
